createdAt,value
2018-09-22T13:46:40.016Z,1.63
2018-09-22T13:49:14.483Z,1.33
2018-09-22T13:51:48.812Z,1.60
2018-09-22T13:54:23.195Z,1.45
2018-09-22T13:56:57.535Z,2.42
2018-09-22T13:59:32.706Z,6.20
2018-09-22T14:02:07.300Z,5.97
2018-09-22T14:04:41.908Z,4.55
2018-09-22T14:07:16.452Z,2.55
2018-09-22T14:09:50.967Z,1.15
2018-09-22T14:12:25.359Z,1.45
2018-09-22T14:14:59.862Z,1.47
2018-09-22T14:17:34.326Z,1.60
2018-09-22T14:20:08.992Z,1.62
2018-09-22T14:22:43.368Z,1.60
2018-09-22T14:25:17.803Z,1.20
2018-09-22T14:27:52.472Z,1.50
2018-09-22T14:30:26.927Z,1.45
2018-09-22T14:33:01.252Z,2.05
2018-09-22T14:35:35.781Z,1.32
2018-09-22T14:38:10.216Z,1.22
2018-09-22T14:40:44.643Z,1.70
2018-09-22T14:43:19.012Z,1.20
2018-09-22T14:45:53.411Z,1.42
2018-09-22T14:48:27.891Z,1.55
2018-09-22T14:51:02.521Z,1.60
2018-09-22T14:53:37.007Z,1.40
2018-09-22T14:56:11.354Z,1.32
2018-09-22T14:58:45.879Z,3.50
2018-09-22T15:01:20.495Z,5.20
2018-09-22T15:03:55.079Z,6.78
2018-09-22T15:06:29.555Z,6.47
2018-09-22T15:09:05.848Z,1.70
2018-09-22T15:11:40.231Z,2.40
2018-09-22T15:14:14.629Z,1.55
2018-09-22T15:16:49.043Z,1.62
2018-09-22T15:19:23.327Z,1.35
2018-09-22T15:21:57.776Z,1.42
2018-09-22T15:24:32.367Z,1.90
2018-09-22T15:27:06.855Z,1.40
2018-09-22T15:29:41.148Z,1.10
2018-09-22T15:32:15.539Z,1.12
2018-09-22T15:34:50.083Z,1.72
2018-09-22T15:37:24.637Z,1.55
2018-09-22T15:39:58.934Z,1.20
2018-09-22T15:42:33.232Z,1.35
2018-09-22T15:45:08.227Z,1.60
2018-09-22T15:47:42.501Z,1.20
2018-09-22T15:50:17.052Z,1.90
2018-09-22T15:52:51.650Z,1.98
2018-09-22T15:55:26.010Z,1.25
2018-09-22T15:58:00.396Z,1.60
2018-09-22T16:00:34.925Z,1.50
2018-09-22T16:03:09.468Z,5.22
2018-09-22T16:05:43.868Z,4.62
2018-09-22T16:08:18.363Z,2.02
2018-09-22T16:10:53.317Z,1.65
2018-09-22T16:13:27.619Z,1.60
2018-09-22T16:16:02.033Z,1.80
2018-09-22T16:23:28.322Z,1.62
2018-09-22T16:26:02.620Z,1.20
2018-09-22T16:28:36.938Z,1.12
2018-09-22T16:31:11.247Z,1.22
2018-09-22T16:33:45.711Z,1.92
2018-09-22T16:36:20.362Z,3.40
2018-09-22T16:38:54.764Z,3.30
2018-09-22T16:41:29.239Z,3.05
2018-09-22T16:44:03.612Z,3.35
2018-09-22T16:46:37.974Z,1.90
2018-09-22T16:49:12.316Z,1.30
2018-09-22T16:51:47.115Z,1.57
2018-09-22T16:54:21.447Z,1.50
2018-09-22T16:56:55.877Z,1.42
2018-09-22T16:59:30.433Z,1.60
2018-09-22T17:02:04.994Z,1.50
2018-09-22T17:04:39.538Z,1.50
2018-09-22T17:07:14.063Z,1.52
2018-09-22T17:09:48.511Z,1.27
2018-09-22T17:12:22.903Z,1.82
2018-09-22T17:14:57.332Z,2.20
2018-09-22T17:17:31.662Z,1.65
2018-09-22T17:20:06.115Z,1.40
2018-09-22T17:22:40.560Z,1.60
2018-09-22T17:25:14.930Z,1.75
2018-09-22T17:27:49.532Z,1.50
2018-09-22T17:30:23.904Z,1.65
2018-09-22T17:32:58.251Z,2.37
2018-09-22T17:35:32.569Z,2.42
2018-09-22T17:38:06.918Z,5.80
2018-09-22T17:40:41.336Z,6.17
2018-09-22T17:43:15.781Z,4.72
2018-09-22T17:45:50.607Z,2.00
2018-09-22T17:48:25.140Z,1.10
2018-09-22T17:50:59.562Z,1.80
2018-09-22T17:53:33.841Z,1.75
2018-09-22T17:56:08.260Z,1.90
2018-09-22T17:58:42.739Z,2.17
2018-09-22T18:01:17.103Z,1.80
2018-09-22T18:03:51.443Z,1.98
2018-09-22T18:06:25.844Z,1.98
2018-09-22T18:09:00.120Z,2.40
2018-09-22T18:11:34.659Z,3.25
2018-09-22T18:14:09.210Z,2.92
2018-09-22T18:16:43.770Z,3.12
2018-09-22T18:19:18.140Z,1.95
2018-09-22T18:21:52.688Z,2.52
2018-09-22T18:24:27.166Z,3.12
2018-09-22T18:27:01.466Z,1.80
2018-09-22T18:29:36.034Z,1.87
2018-09-22T18:32:10.409Z,2.33
2018-09-22T18:34:44.984Z,2.20
2018-09-22T18:37:19.530Z,4.33
2018-09-22T18:39:54.097Z,7.37
2018-09-22T18:42:28.424Z,11.25
2018-09-22T18:45:02.831Z,3.05
2018-09-22T18:47:37.131Z,3.27
2018-09-22T18:50:11.624Z,2.62
2018-09-22T18:52:45.908Z,2.20
2018-09-22T18:55:20.245Z,2.20
2018-09-22T18:57:54.685Z,1.45
2018-09-22T19:00:29.098Z,2.27
2018-09-22T19:03:03.396Z,1.77
2018-09-22T19:05:37.776Z,1.80
2018-09-22T19:08:12.179Z,1.90
2018-09-22T19:10:46.537Z,1.60
2018-09-22T19:13:25.435Z,1.67
2018-09-22T19:16:03.924Z,1.95
2018-09-22T19:18:48.588Z,1.82
2018-09-22T19:21:28.471Z,2.33
2018-09-22T19:24:07.278Z,2.00
2018-09-22T19:26:46.155Z,2.60
2018-09-22T19:29:28.688Z,1.80
2018-09-22T19:32:07.320Z,2.30
2018-09-22T19:34:50.098Z,2.62
2018-09-22T19:37:29.304Z,2.37
2018-09-22T19:40:14.336Z,2.12
2018-09-22T19:43:08.440Z,2.10
2018-09-22T19:45:51.076Z,2.42
2018-09-22T19:48:42.840Z,1.82
2018-09-22T19:51:18.608Z,2.95
2018-09-22T19:53:54.177Z,3.65
2018-09-22T19:56:28.559Z,7.22
2018-09-22T19:59:02.901Z,6.62
2018-09-22T20:01:37.258Z,7.60
2018-09-22T20:04:11.681Z,2.27
2018-09-22T20:06:46.260Z,2.12
2018-09-22T20:09:20.740Z,2.10
2018-09-22T20:11:55.249Z,2.87
2018-09-22T20:14:29.720Z,2.60
2018-09-22T20:17:04.195Z,2.80
2018-09-22T20:19:38.752Z,2.90
2018-09-22T20:22:13.160Z,2.85
2018-09-22T20:24:47.660Z,2.70
2018-09-22T20:27:22.179Z,2.45
2018-09-22T20:29:56.541Z,2.35
2018-09-22T20:32:30.977Z,3.20
2018-09-22T20:35:05.480Z,2.80
2018-09-22T20:37:39.784Z,3.00
2018-09-22T20:40:14.228Z,2.65
2018-09-22T20:42:48.840Z,2.27
2018-09-22T20:45:23.506Z,2.17
2018-09-22T20:47:58.076Z,3.17
2018-09-22T20:50:32.580Z,2.90
2018-09-22T20:53:07.277Z,3.05
2018-09-22T20:55:42.214Z,6.33
2018-09-22T20:58:16.496Z,8.68
2018-09-22T21:00:51.167Z,4.85
2018-09-22T21:03:25.800Z,3.17
2018-09-22T21:06:00.226Z,2.70
2018-09-22T21:08:34.687Z,2.98
2018-09-22T21:11:08.981Z,2.62
2018-09-22T21:13:43.377Z,2.65
2018-09-22T21:16:18.193Z,2.52
2018-09-22T21:18:52.693Z,3.40
2018-09-22T21:21:27.040Z,2.70
2018-09-22T21:24:01.568Z,2.40
2018-09-22T21:26:35.888Z,2.08
2018-09-22T21:29:10.611Z,1.75
2018-09-22T21:31:45.426Z,2.17
2018-09-22T21:34:19.873Z,2.52
2018-09-22T21:36:54.633Z,2.50
2018-09-22T21:39:29.068Z,2.10
2018-09-22T21:42:03.636Z,1.80
2018-09-22T21:44:38.037Z,2.25
2018-09-22T21:47:12.545Z,1.95
2018-09-22T21:49:47.243Z,2.05
2018-09-22T21:52:21.640Z,2.40
2018-09-22T21:54:56.271Z,2.60
2018-09-22T21:57:30.612Z,8.05
2018-09-22T22:00:05.324Z,6.33
2018-09-22T22:02:39.760Z,7.08
2018-09-22T22:05:14.175Z,3.77
2018-09-22T22:07:48.848Z,4.15
2018-09-22T22:10:23.417Z,2.22
2018-09-22T22:12:58.025Z,2.50
2018-09-22T22:15:32.467Z,3.25
2018-09-22T22:18:07.117Z,2.10
2018-09-22T22:20:41.511Z,2.40
2018-09-22T22:23:15.978Z,2.72
2018-09-22T22:25:50.733Z,2.10
2018-09-22T22:28:25.293Z,2.37
2018-09-22T22:30:59.772Z,2.90
2018-09-22T22:33:34.408Z,2.15
2018-09-22T22:36:09.015Z,2.40
2018-09-22T22:38:43.557Z,2.58
2018-09-22T22:41:18.113Z,2.25
2018-09-22T22:43:52.594Z,2.80
2018-09-22T22:46:27.200Z,2.22
2018-09-22T22:49:01.570Z,2.90
2018-09-22T22:51:35.876Z,3.52
2018-09-22T22:54:10.340Z,2.50
2018-09-22T22:56:45.087Z,9.15
2018-09-22T22:59:19.477Z,7.22
2018-09-22T23:01:54.137Z,12.20
2018-09-22T23:04:28.864Z,3.47
2018-09-22T23:07:03.347Z,3.45
2018-09-22T23:09:37.784Z,2.95
2018-09-22T23:14:59.541Z,2.60
2018-09-22T23:17:33.957Z,3.00
2018-09-22T23:20:08.460Z,2.55
2018-09-22T23:22:42.948Z,2.98
2018-09-22T23:25:17.349Z,2.30
2018-09-22T23:27:51.728Z,3.05
2018-09-22T23:30:26.345Z,2.92
2018-09-22T23:33:00.824Z,2.90
2018-09-22T23:35:35.328Z,2.87
2018-09-22T23:38:09.651Z,2.35
2018-09-22T23:40:44.161Z,2.40
2018-09-22T23:43:18.690Z,2.02
2018-09-22T23:45:53.464Z,1.52
2018-09-22T23:48:28.080Z,2.08
2018-09-22T23:51:02.777Z,8.85
2018-09-22T23:53:37.292Z,5.45
2018-09-22T23:56:11.785Z,7.95
2018-09-22T23:58:46.169Z,15.78
